Kuujjuarapik, Canada
Current Conditions -  °F | °C
As of 2:00 PM on Thursday 23 Oct 2014 (Local Time) from CYGW Reporting Station
Clear Clear  
Wind Chill: 54°   Ceiling: Unl
Heat Index: 54°   Visibility: 9mi
Dew Point: 34°   Wind: 10mph
Humidity: 47%   Direction: 220°SW
Pressure: 30.01"   Gusts: 17mph
Location:  55.26°N, 77.78°W
Report Text: CYGW 231800Z AUTO 22009G15KT 9SM CLR 12/01 A3001 RMK SLP164
Loading
Personal Weather Stations






























Interactive Weather Map
Tropical Storm Tracking
New forecast layout! Learn more

10-Day Weather Forecast

Advertisements
Track Severe Weather on mobile